createdAt,value
2022-10-11T00:01:47.731Z,4.86
2022-10-11T00:04:14.597Z,4.86
2022-10-11T00:06:43.699Z,4.86
2022-10-11T00:09:15.269Z,4.82
2022-10-11T00:11:42.799Z,4.90
2022-10-11T00:14:09.687Z,4.87
2022-10-11T00:16:38.963Z,4.88
2022-10-11T00:19:05.845Z,4.84
2022-10-11T00:21:32.827Z,4.90
2022-10-11T00:23:59.609Z,4.85
2022-10-11T00:26:26.387Z,4.80
2022-10-11T00:28:53.330Z,4.76
2022-10-11T00:31:20.504Z,4.65
2022-10-11T00:33:47.307Z,4.68
2022-10-11T00:36:16.815Z,4.64
2022-10-11T00:38:44.714Z,4.60
2022-10-11T00:41:11.931Z,4.58
2022-10-11T00:43:38.792Z,4.53
2022-10-11T00:46:30.353Z,4.52
2022-10-11T00:49:01.958Z,4.54
2022-10-11T00:51:57.564Z,4.54
2022-10-11T00:54:26.053Z,4.59
2022-10-11T00:57:14.410Z,4.68
2022-10-11T00:59:44.395Z,4.67
2022-10-11T01:02:11.594Z,4.72
2022-10-11T01:04:38.774Z,4.74
2022-10-11T01:07:05.738Z,4.74
2022-10-11T01:09:32.751Z,4.71
2022-10-11T01:12:01.767Z,4.83
2022-10-11T01:15:13.075Z,4.85
2022-10-11T01:17:55.061Z,4.51
2022-10-11T01:20:37.504Z,4.23
2022-10-11T01:23:22.538Z,4.32
2022-10-11T01:26:13.759Z,4.29
2022-10-11T01:28:51.281Z,4.31
2022-10-11T01:31:27.042Z,4.30
2022-10-11T01:33:59.147Z,4.22
2022-10-11T01:36:47.481Z,4.27
2022-10-11T01:39:24.644Z,4.05
2022-10-11T01:41:54.313Z,3.99
2022-10-11T01:44:21.784Z,3.93
2022-10-11T01:46:48.457Z,3.79
2022-10-11T01:49:15.122Z,3.66
2022-10-11T01:51:48.893Z,3.64
2022-10-11T01:55:08.606Z,3.57
2022-10-11T01:57:39.281Z,3.52
2022-10-11T02:00:22.491Z,3.53
2022-10-11T02:03:11.974Z,3.54
2022-10-11T02:05:53.815Z,3.58
2022-10-11T02:08:50.062Z,3.47
2022-10-11T02:11:19.442Z,3.43
2022-10-11T02:13:57.933Z,3.37
2022-10-11T02:16:28.759Z,3.43
2022-10-11T02:18:56.964Z,3.38
2022-10-11T02:21:24.825Z,3.35
2022-10-11T02:24:01.794Z,3.15
2022-10-11T02:26:31.284Z,3.31
2022-10-11T02:29:01.261Z,3.44
2022-10-11T02:31:29.447Z,3.51
2022-10-11T02:34:06.001Z,3.46
2022-10-11T02:37:04.743Z,3.11
2022-10-11T02:39:41.256Z,2.92
2022-10-11T02:42:15.386Z,2.90
2022-10-11T02:44:45.568Z,2.86
2022-10-11T02:47:12.485Z,2.86
2022-10-11T02:49:39.135Z,3.04
2022-10-11T02:52:06.817Z,2.98
2022-10-11T02:54:33.581Z,3.03
2022-10-11T02:57:00.324Z,3.01
2022-10-11T02:59:26.974Z,3.01
2022-10-11T03:01:53.706Z,3.11
2022-10-11T03:04:20.475Z,3.24
2022-10-11T03:06:47.111Z,3.28
2022-10-11T03:09:13.825Z,3.34
2022-10-11T03:11:40.457Z,3.45
2022-10-11T03:14:07.078Z,3.33
2022-10-11T03:16:33.830Z,3.54
2022-10-11T03:19:00.435Z,3.59
2022-10-11T03:21:27.045Z,3.59
2022-10-11T03:23:53.729Z,3.57
2022-10-11T03:26:20.386Z,3.44
2022-10-11T03:28:47.219Z,3.26
2022-10-11T03:31:14.027Z,3.16
2022-10-11T03:33:40.778Z,3.16
2022-10-11T03:36:09.213Z,3.14
2022-10-11T03:38:36.211Z,3.07
2022-10-11T03:41:02.846Z,3.10
2022-10-11T03:43:29.490Z,3.12
2022-10-11T03:45:56.135Z,3.05
2022-10-11T03:48:22.758Z,2.95
2022-10-11T03:50:49.477Z,2.97
2022-10-11T03:53:16.234Z,2.87
2022-10-11T03:55:42.861Z,2.87
2022-10-11T03:58:09.591Z,2.93
2022-10-11T04:00:36.702Z,2.96
2022-10-11T04:03:06.070Z,3.10
2022-10-11T04:05:32.728Z,3.09
2022-10-11T04:08:02.346Z,3.15
2022-10-11T04:10:29.095Z,3.33
2022-10-11T04:12:55.858Z,3.28
2022-10-11T04:15:22.920Z,3.14
2022-10-11T04:17:49.764Z,3.03
2022-10-11T04:20:16.712Z,2.92
2022-10-11T04:22:43.417Z,2.86
2022-10-11T04:25:10.462Z,2.70
2022-10-11T04:27:37.409Z,2.60
2022-10-11T04:30:05.028Z,2.67
2022-10-11T04:32:31.697Z,2.65
2022-10-11T04:34:58.308Z,2.63
2022-10-11T04:37:24.918Z,2.70
2022-10-11T04:39:51.543Z,2.71
2022-10-11T04:42:18.282Z,2.76
2022-10-11T04:44:44.930Z,2.73
2022-10-11T04:47:11.754Z,2.70
2022-10-11T04:49:38.447Z,2.85
2022-10-11T04:52:05.097Z,2.88
2022-10-11T04:54:32.042Z,2.96
2022-10-11T04:56:58.687Z,2.99
2022-10-11T04:59:25.407Z,3.23
2022-10-11T05:01:52.035Z,3.40
2022-10-11T05:04:19.508Z,3.50
2022-10-11T05:06:46.757Z,3.61
2022-10-11T05:09:13.456Z,3.63
2022-10-11T05:11:40.088Z,3.71
2022-10-11T05:14:06.860Z,3.70
2022-10-11T05:16:33.583Z,3.73
2022-10-11T05:19:00.276Z,3.82
2022-10-11T05:21:28.977Z,3.92
2022-10-11T05:23:56.460Z,4.03
2022-10-11T05:26:24.596Z,4.12
2022-10-11T05:28:51.536Z,4.19
2022-10-11T05:31:18.522Z,4.32
2022-10-11T05:33:45.198Z,4.39
2022-10-11T05:36:12.151Z,4.32
2022-10-11T05:38:39.390Z,4.43
2022-10-11T05:41:06.854Z,4.50
2022-10-11T05:43:33.612Z,4.62
2022-10-11T05:46:00.224Z,4.71
2022-10-11T05:48:28.540Z,4.78
2022-10-11T05:51:03.180Z,4.87
2022-10-11T05:53:30.391Z,4.95
2022-10-11T05:55:57.459Z,4.97
2022-10-11T05:58:24.322Z,5.11
2022-10-11T06:00:51.093Z,5.16
2022-10-11T06:03:18.144Z,5.28
2022-10-11T06:05:44.832Z,5.31
2022-10-11T06:08:11.566Z,5.37
2022-10-11T06:10:39.210Z,5.49
2022-10-11T06:13:06.599Z,5.55
2022-10-11T06:15:34.062Z,5.68
2022-10-11T06:18:00.799Z,5.75
2022-10-11T06:20:27.613Z,5.82
2022-10-11T06:22:54.726Z,5.93
2022-10-11T06:25:21.770Z,5.88
2022-10-11T06:27:48.791Z,5.88
2022-10-11T06:30:15.716Z,5.92
2022-10-11T06:32:42.666Z,6.11
2022-10-11T06:35:09.533Z,6.28
2022-10-11T06:37:36.866Z,6.42
2022-10-11T06:40:04.164Z,6.56
2022-10-11T06:42:30.929Z,6.77
2022-10-11T06:44:57.834Z,6.86
2022-10-11T06:47:24.918Z,6.97
2022-10-11T06:49:51.997Z,7.04
2022-10-11T06:52:18.999Z,7.17
2022-10-11T06:54:45.859Z,7.33
2022-10-11T06:57:12.844Z,7.32
2022-10-11T06:59:39.687Z,7.58
2022-10-11T07:02:06.947Z,7.66
2022-10-11T07:04:34.128Z,7.78
2022-10-11T07:07:01.165Z,7.84
2022-10-11T07:09:28.026Z,7.94
2022-10-11T07:11:54.787Z,8.05
2022-10-11T07:14:21.806Z,8.11
2022-10-11T07:16:48.651Z,8.21
2022-10-11T07:19:15.488Z,8.29
2022-10-11T07:21:42.192Z,8.35
2022-10-11T07:24:09.201Z,8.48
2022-10-11T07:26:38.151Z,8.53
2022-10-11T07:29:06.748Z,8.52
2022-10-11T07:31:33.503Z,8.61
2022-10-11T07:34:00.362Z,8.62
2022-10-11T07:36:27.597Z,8.74
2022-10-11T07:38:55.396Z,8.85
2022-10-11T07:41:22.303Z,8.97
2022-10-11T07:43:49.889Z,9.01
2022-10-11T07:46:17.959Z,9.13
2022-10-11T07:48:44.729Z,9.05
2022-10-11T07:51:14.312Z,8.93
2022-10-11T07:53:51.719Z,8.97
2022-10-11T07:56:24.105Z,9.02
2022-10-11T07:58:52.816Z,9.21
2022-10-11T08:01:20.444Z,9.21
2022-10-11T08:03:47.535Z,9.06
2022-10-11T08:06:17.192Z,9.30
2022-10-11T08:08:44.167Z,9.41
2022-10-11T08:11:11.441Z,9.45
2022-10-11T08:13:38.574Z,9.54
2022-10-11T08:16:12.720Z,9.64
2022-10-11T08:18:40.115Z,9.66
2022-10-11T08:21:11.665Z,9.72
2022-10-11T08:23:38.306Z,9.73
2022-10-11T08:26:05.349Z,9.79
2022-10-11T08:28:32.419Z,9.49
2022-10-11T08:30:59.247Z,9.66
2022-10-11T08:33:26.857Z,9.75
2022-10-11T08:35:55.195Z,9.69
2022-10-11T08:38:21.953Z,9.83
2022-10-11T08:40:51.013Z,9.90
2022-10-11T08:43:50.956Z,9.80
2022-10-11T08:46:24.306Z,9.80
2022-10-11T08:48:51.850Z,10.01
2022-10-11T08:51:25.959Z,10.22
2022-10-11T08:54:13.992Z,10.30
2022-10-11T08:56:41.882Z,10.38
2022-10-11T08:59:11.466Z,10.49
2022-10-11T09:01:45.175Z,10.44
2022-10-11T09:04:16.652Z,10.52
2022-10-11T09:06:48.930Z,10.55
2022-10-11T09:09:53.314Z,10.63
2022-10-11T09:12:44.382Z,10.64
2022-10-11T09:15:25.298Z,10.55
2022-10-11T09:18:19.992Z,10.64
2022-10-11T09:21:13.999Z,10.45
2022-10-11T09:23:58.853Z,10.56
2022-10-11T09:26:38.621Z,10.61
2022-10-11T09:29:31.400Z,10.74
2022-10-11T09:31:58.583Z,10.88
2022-10-11T09:34:34.063Z,10.88
2022-10-11T09:37:07.734Z,11.01
2022-10-11T09:39:36.037Z,11.03
2022-10-11T09:42:08.055Z,11.07
2022-10-11T09:44:40.433Z,11.16
2022-10-11T09:47:10.369Z,11.16
2022-10-11T09:50:05.382Z,11.07
2022-10-11T09:52:33.038Z,11.25
2022-10-11T09:55:01.712Z,11.39
2022-10-11T09:57:33.672Z,11.48
2022-10-11T10:00:06.505Z,11.61
2022-10-11T10:02:44.449Z,11.45
2022-10-11T10:05:11.144Z,11.45
2022-10-11T10:07:41.056Z,11.56
2022-10-11T10:10:34.716Z,11.50
2022-10-11T10:13:04.071Z,11.51
2022-10-11T10:15:33.940Z,11.43
2022-10-11T10:18:00.798Z,11.55
2022-10-11T10:20:33.475Z,11.62
2022-10-11T10:23:04.607Z,11.64
2022-10-11T10:25:43.104Z,11.77
2022-10-11T10:28:26.195Z,11.79
2022-10-11T10:30:59.650Z,11.75
2022-10-11T10:33:30.688Z,11.81
2022-10-11T10:36:03.365Z,11.92
2022-10-11T10:38:37.486Z,12.06
2022-10-11T10:41:11.244Z,12.07
2022-10-11T10:43:39.646Z,12.12
2022-10-11T10:46:25.158Z,12.09
2022-10-11T10:52:06.062Z,12.15
2022-10-11T10:54:38.706Z,12.27
2022-10-11T10:57:33.363Z,12.20
2022-10-11T11:00:15.432Z,12.37
2022-10-11T11:02:58.804Z,12.38
2022-10-11T11:05:25.592Z,12.33
2022-10-11T11:08:00.237Z,12.32
2022-10-11T11:10:45.383Z,12.39
2022-10-11T11:13:25.705Z,12.28
2022-10-11T11:16:11.740Z,12.36
2022-10-11T11:19:20.283Z,12.44
2022-10-11T11:21:52.920Z,12.55
2022-10-11T11:24:29.626Z,12.55
2022-10-11T11:27:13.403Z,12.60
2022-10-11T11:30:08.025Z,12.61
2022-10-11T11:32:50.225Z,12.56
2022-10-11T11:35:33.906Z,12.54
2022-10-11T11:38:49.912Z,12.54
2022-10-11T11:41:25.915Z,12.56
2022-10-11T11:44:12.260Z,12.69
2022-10-11T11:46:44.503Z,12.66
2022-10-11T11:49:19.240Z,12.78
2022-10-11T11:51:46.693Z,12.71
2022-10-11T11:54:22.255Z,12.73
2022-10-11T11:56:51.742Z,12.75
2022-10-11T11:59:31.013Z,12.85
2022-10-11T12:02:38.999Z,13.03
2022-10-11T12:05:07.357Z,12.84
2022-10-11T12:07:51.258Z,12.78
2022-10-11T12:10:50.175Z,12.85
2022-10-11T12:13:35.143Z,13.02
2022-10-11T12:16:09.864Z,13.02
2022-10-11T12:18:51.270Z,13.19
2022-10-11T12:21:38.061Z,13.26
2022-10-11T12:24:57.358Z,13.20
2022-10-11T12:27:43.450Z,13.33
2022-10-11T12:30:47.254Z,13.29
2022-10-11T12:33:21.510Z,13.39
2022-10-11T12:36:04.093Z,13.39
2022-10-11T12:38:40.069Z,13.36
2022-10-11T12:41:09.447Z,13.55
2022-10-11T12:44:13.030Z,13.43
2022-10-11T12:46:42.765Z,13.44
2022-10-11T12:49:31.267Z,13.51
2022-10-11T12:52:01.025Z,13.53
2022-10-11T12:55:05.472Z,13.41
2022-10-11T12:57:47.516Z,13.33
2022-10-11T13:00:31.129Z,13.38
2022-10-11T13:03:29.766Z,13.26
2022-10-11T13:06:01.712Z,13.20
2022-10-11T13:08:35.165Z,13.33
2022-10-11T13:11:06.188Z,13.31
2022-10-11T13:13:37.812Z,13.36
2022-10-11T13:16:20.703Z,13.20
2022-10-11T13:18:49.533Z,13.17
2022-10-11T13:21:23.036Z,13.11
2022-10-11T13:23:55.014Z,13.14
2022-10-11T13:26:21.620Z,13.12
2022-10-11T13:28:48.513Z,13.16
2022-10-11T13:31:15.200Z,13.12
2022-10-11T13:33:42.909Z,13.14
2022-10-11T13:36:16.075Z,12.99
2022-10-11T13:38:51.209Z,12.80
2022-10-11T13:41:17.848Z,13.00
2022-10-11T13:43:45.615Z,13.10
2022-10-11T13:46:19.779Z,13.10
2022-10-11T13:48:46.527Z,12.99
2022-10-11T13:51:16.868Z,12.89
2022-10-11T13:54:09.463Z,12.79
2022-10-11T13:56:46.237Z,12.61
2022-10-11T13:59:21.463Z,12.53
2022-10-11T14:01:48.232Z,12.50
2022-10-11T14:04:17.294Z,12.41
2022-10-11T14:06:58.842Z,12.33
2022-10-11T14:09:34.920Z,12.30
2022-10-11T14:12:31.868Z,12.27
2022-10-11T14:15:03.279Z,12.21
2022-10-11T14:17:40.581Z,12.20
2022-10-11T14:20:40.233Z,12.16
2022-10-11T14:23:07.486Z,12.09
2022-10-11T14:25:34.519Z,12.01
2022-10-11T14:28:01.482Z,12.08
2022-10-11T14:30:31.399Z,12.33
2022-10-11T14:33:01.923Z,12.60
2022-10-11T14:35:32.652Z,12.51
2022-10-11T14:37:59.861Z,12.28
2022-10-11T14:40:29.795Z,12.08
2022-10-11T14:42:57.159Z,11.99
2022-10-11T14:45:23.987Z,11.73
2022-10-11T14:47:53.856Z,11.57
2022-10-11T14:50:48.085Z,11.43
2022-10-11T14:53:15.432Z,10.63
2022-10-11T14:55:43.314Z,10.63
2022-10-11T14:58:12.127Z,11.09
2022-10-11T15:00:38.935Z,10.78
2022-10-11T15:03:07.622Z,10.98
2022-10-11T15:05:35.625Z,10.91
2022-10-11T15:08:06.757Z,10.83
2022-10-11T19:57:02.173Z,6.52
2022-10-11T19:59:28.889Z,6.60
2022-10-11T20:01:55.475Z,6.55
2022-10-11T20:07:08.949Z,6.40
2022-10-11T20:09:35.600Z,6.57
2022-10-11T20:12:02.281Z,6.61
2022-10-11T20:14:28.890Z,6.84
2022-10-11T20:16:55.545Z,6.71
2022-10-11T20:19:27.752Z,6.84
2022-10-11T20:21:57.011Z,6.75
2022-10-11T20:24:23.699Z,6.77
2022-10-11T20:26:50.323Z,6.90
2022-10-11T20:29:16.963Z,6.93
2022-10-11T20:31:43.615Z,6.90
2022-10-11T20:34:10.983Z,6.79
2022-10-11T20:36:37.883Z,6.78
2022-10-11T20:39:05.808Z,6.80
2022-10-11T20:41:39.798Z,6.88
2022-10-11T20:44:07.918Z,6.84
2022-10-11T20:46:37.346Z,6.91
2022-10-11T20:49:09.597Z,6.81
2022-10-11T20:51:38.466Z,6.80
2022-10-11T20:54:05.485Z,6.80
2022-10-11T20:56:32.352Z,6.83
2022-10-11T20:58:59.515Z,6.99
2022-10-11T21:01:29.193Z,6.92
2022-10-11T21:03:57.812Z,6.95
2022-10-11T21:06:24.720Z,6.98
2022-10-11T21:08:51.421Z,7.08
2022-10-11T21:11:18.055Z,7.17
2022-10-11T21:13:44.749Z,7.25
2022-10-11T21:16:13.962Z,7.27
2022-10-11T21:18:40.679Z,7.38
2022-10-11T21:21:09.018Z,7.36
2022-10-11T21:23:35.702Z,7.43
2022-10-11T21:26:08.650Z,7.53
2022-10-11T21:28:35.317Z,7.53
2022-10-11T21:31:09.545Z,7.67
2022-10-11T21:33:37.137Z,7.63
2022-10-11T21:36:08.734Z,7.70
2022-10-11T21:38:37.297Z,7.76
2022-10-11T21:41:05.458Z,7.72
2022-10-11T21:43:38.094Z,7.71
2022-10-11T21:46:11.191Z,7.79
2022-10-11T21:48:38.207Z,7.93
2022-10-11T21:51:05.327Z,7.94
2022-10-11T21:53:32.077Z,8.01
2022-10-11T21:56:01.786Z,7.99
2022-10-11T21:58:28.718Z,8.09
2022-10-11T22:00:55.341Z,8.10
2022-10-11T22:03:22.076Z,8.02
2022-10-11T22:05:48.728Z,8.18
2022-10-11T22:08:15.804Z,8.16
2022-10-11T22:10:53.036Z,8.04
2022-10-11T22:13:19.645Z,8.09
2022-10-11T22:15:46.275Z,8.06
2022-10-11T22:18:12.958Z,8.11
2022-10-11T22:20:39.618Z,8.03
2022-10-11T22:23:06.238Z,8.01
2022-10-11T22:25:36.782Z,7.92
2022-10-11T22:28:03.975Z,7.94
2022-10-11T22:30:31.185Z,7.99
2022-10-11T22:32:57.875Z,8.09
2022-10-11T22:35:24.512Z,8.24
2022-10-11T22:37:51.182Z,8.27
2022-10-11T22:40:18.750Z,8.58
2022-10-11T22:42:45.461Z,8.71
2022-10-11T22:45:12.153Z,8.75
2022-10-11T22:47:38.941Z,8.85
2022-10-11T22:50:05.923Z,8.85
2022-10-11T22:52:32.562Z,8.95
2022-10-11T22:54:59.274Z,8.94
2022-10-11T22:57:25.857Z,8.90
2022-10-11T22:59:52.471Z,8.91
2022-10-11T23:02:19.070Z,8.94
2022-10-11T23:04:45.644Z,8.98
2022-10-11T23:07:12.241Z,9.02
2022-10-11T23:09:38.851Z,9.01
2022-10-11T23:12:05.683Z,9.05
2022-10-11T23:14:32.320Z,8.96
2022-10-11T23:16:58.912Z,9.11
2022-10-11T23:19:25.581Z,9.07
2022-10-11T23:21:52.274Z,9.04
2022-10-11T23:24:18.896Z,9.04
2022-10-11T23:26:45.489Z,8.93
2022-10-11T23:29:12.233Z,9.03
2022-10-11T23:31:38.831Z,9.05
2022-10-11T23:34:05.459Z,9.04
2022-10-11T23:36:32.123Z,9.05
2022-10-11T23:38:59.240Z,9.06
2022-10-11T23:41:27.763Z,9.03
2022-10-11T23:43:54.947Z,9.01
2022-10-11T23:46:21.605Z,9.03
2022-10-11T23:48:48.241Z,9.01
2022-10-11T23:51:15.131Z,9.02
2022-10-11T23:53:42.829Z,8.99
2022-10-11T23:56:11.158Z,8.94
2022-10-11T23:58:38.198Z,8.93
